Time;durP1;ratioP1;P1;durP2;ratioP2;P2;SDS_P1;SDS_P2;PMS_P1;PMS_P2;Temp;Humidity;BMP_temperature;BMP_pressure;BME280_temperature;BME280_humidity;BME280_pressure;Samples;Min_cycle;Max_cycle;Signal;HPM_P1;HPM_P2
2023/10/03 00:02:20;;;;;;;8.07;3.75;;;19.60;99.90;;;;;;5036720;28;20035;-68
2023/10/03 00:04:45;;;;;;;6.95;4.15;;;19.60;99.90;;;;;;5037550;28;20437;-68
2023/10/03 00:07:11;;;;;;;4.90;3.67;;;19.60;99.90;;;;;;5038551;28;20017;-69
2023/10/03 00:09:37;;;;;;;6.00;3.47;;;19.60;99.90;;;;;;5038345;28;20026;-69
2023/10/03 00:12:02;;;;;;;4.88;3.63;;;19.70;99.90;;;;;;5038338;28;20026;-69
2023/10/03 00:14:28;;;;;;;7.03;3.65;;;19.70;99.90;;;;;;5038088;28;20367;-69
2023/10/03 00:16:54;;;;;;;7.18;3.60;;;19.70;99.90;;;;;;5037892;28;20030;-69
2023/10/03 00:19:20;;;;;;;5.82;4.00;;;19.70;99.90;;;;;;5037794;28;20373;-69
2023/10/03 00:21:46;;;;;;;6.55;3.40;;;19.70;99.90;;;;;;5038332;28;20021;-68
2023/10/03 00:24:12;;;;;;;7.18;4.20;;;19.70;99.90;;;;;;5038235;28;20085;-69
2023/10/03 00:26:39;;;;;;;5.85;3.92;;;19.70;99.90;;;;;;5037801;28;20521;-68
2023/10/03 00:29:09;;;;;;;5.28;3.60;;;19.70;99.90;;;;;;5036508;28;20036;-68
2023/10/03 00:31:35;;;;;;;9.48;3.78;;;19.70;99.90;;;;;;5037669;28;20041;-68
2023/10/03 00:34:01;;;;;;;6.28;3.85;;;19.70;99.90;;;;;;5038204;28;20398;-68
2023/10/03 00:36:27;;;;;;;6.80;4.00;;;19.70;99.90;;;;;;5037711;28;20549;-68
2023/10/03 00:38:53;;;;;;;6.60;3.63;;;19.70;99.90;;;;;;5037386;28;20071;-69
2023/10/03 00:41:19;;;;;;;6.72;3.58;;;19.70;99.90;;;;;;5037563;28;20029;-69
2023/10/03 00:44:00;;;;;;;5.50;3.60;;;19.60;99.90;;;;;;5037970;28;20021;-68
2023/10/03 00:46:30;;;;;;;5.60;3.47;;;19.60;99.90;;;;;;5037319;28;20030;-68
2023/10/03 00:48:56;;;;;;;7.43;3.85;;;19.60;99.90;;;;;;5036268;28;20092;-69
2023/10/03 00:51:25;;;;;;;6.65;3.88;;;19.60;99.90;;;;;;5037155;28;20030;-69
2023/10/03 00:53:55;;;;;;;5.82;3.80;;;19.60;99.90;;;;;;5037591;28;20075;-69
2023/10/03 00:56:21;;;;;;;7.10;3.83;;;19.60;99.90;;;;;;5037714;28;20057;-69
2023/10/03 00:58:47;;;;;;;5.47;3.80;;;19.60;99.90;;;;;;5037209;28;20437;-68
2023/10/03 01:01:12;;;;;;;7.00;4.20;;;19.60;99.90;;;;;;5037106;28;20075;-69
2023/10/03 01:03:38;;;;;;;5.72;4.03;;;19.60;99.90;;;;;;5035977;28;20017;-69
2023/10/03 01:06:09;;;;;;;6.63;3.90;;;19.60;99.90;;;;;;5037260;28;20390;-69
2023/10/03 01:08:39;;;;;;;5.88;2.90;;;19.40;99.90;;;;;;5037321;28;20026;-68
2023/10/03 01:11:15;;;;;;;5.68;2.70;;;19.40;99.90;;;;;;5037160;28;20025;-69
2023/10/03 01:13:42;;;;;;;5.72;3.17;;;19.40;99.90;;;;;;5037333;28;20021;-68
2023/10/03 01:16:08;;;;;;;7.85;3.28;;;19.50;99.90;;;;;;5035350;28;20037;-68
2023/10/03 01:18:37;;;;;;;5.15;3.35;;;19.40;99.90;;;;;;5035733;28;20500;-68
2023/10/03 01:21:05;;;;;;;4.72;2.78;;;19.40;99.90;;;;;;5037259;28;20021;-68
2023/10/03 01:23:40;;;;;;;3.83;3.00;;;19.40;99.90;;;;;;5035845;28;20022;-68
2023/10/03 01:26:07;;;;;;;5.13;2.50;;;19.40;99.90;;;;;;5035734;28;20033;-68
2023/10/03 01:28:33;;;;;;;4.68;2.97;;;19.50;99.90;;;;;;5035462;28;20030;-68
2023/10/03 01:30:58;;;;;;;4.88;2.60;;;19.40;99.90;;;;;;5036122;28;20033;-69
2023/10/03 01:33:28;;;;;;;5.30;2.80;;;19.40;99.90;;;;;;5035696;28;20025;-69
2023/10/03 01:35:54;;;;;;;3.65;2.67;;;19.50;99.90;;;;;;5035769;28;20100;-69
2023/10/03 01:38:20;;;;;;;3.05;2.50;;;19.50;99.90;;;;;;5036838;28;20083;-69
2023/10/03 01:40:51;;;;;;;4.55;2.78;;;19.50;99.90;;;;;;5036474;28;20030;-69
2023/10/03 01:43:17;;;;;;;5.30;3.15;;;19.50;99.90;;;;;;5036814;28;20029;-69
2023/10/03 01:45:42;;;;;;;4.90;2.90;;;19.50;99.90;;;;;;5035541;28;20084;-69
2023/10/03 01:48:08;;;;;;;3.70;2.70;;;19.50;99.90;;;;;;5036790;28;20432;-69
2023/10/03 01:50:36;;;;;;;5.00;3.25;;;19.50;99.90;;;;;;5035466;28;20037;-69
2023/10/03 01:53:02;;;;;;;4.30;2.85;;;19.50;99.90;;;;;;5036618;28;20525;-69
2023/10/03 01:55:28;;;;;;;5.35;2.97;;;19.50;99.90;;;;;;5038846;28;20033;-69
2023/10/03 01:57:54;;;;;;;4.28;3.10;;;19.50;99.90;;;;;;5036621;28;20222;-69
2023/10/03 02:00:26;;;;;;;5.45;3.20;;;19.40;99.90;;;;;;5035346;28;20029;-68
2023/10/03 02:02:53;;;;;;;5.93;2.97;;;19.40;99.90;;;;;;5033051;28;20052;-69
2023/10/03 02:05:23;;;;;;;4.30;3.00;;;19.40;99.90;;;;;;5036794;28;20025;-68
2023/10/03 02:07:51;;;;;;;4.03;2.67;;;19.40;99.90;;;;;;5036547;28;20103;-68
2023/10/03 02:10:18;;;;;;;6.50;3.33;;;19.40;99.90;;;;;;5035058;28;20430;-68
2023/10/03 02:12:56;;;;;;;5.28;2.85;;;19.40;99.90;;;;;;5036378;28;20029;-68
2023/10/03 02:15:26;;;;;;;3.45;2.78;;;19.40;99.90;;;;;;5036057;28;20117;-69
2023/10/03 02:17:56;;;;;;;4.63;2.80;;;19.40;99.90;;;;;;5036691;28;20078;-69
2023/10/03 02:20:25;;;;;;;4.95;2.92;;;19.40;99.90;;;;;;5035148;28;20021;-69
2023/10/03 02:22:55;;;;;;;5.35;2.83;;;19.40;99.90;;;;;;5036456;28;20022;-69
2023/10/03 02:25:28;;;;;;;3.88;3.05;;;19.40;99.90;;;;;;5036517;28;20029;-68
2023/10/03 02:27:55;;;;;;;;;;;19.40;99.90;;;;;;5036762;28;20029;-69
2023/10/03 02:30:25;;;;;;;4.70;2.40;;;19.40;99.90;;;;;;5036215;28;19905;-69
2023/10/03 02:32:58;;;;;;;5.10;2.55;;;19.40;99.90;;;;;;5035114;28;20033;-68
2023/10/03 02:35:25;;;;;;;5.95;3.17;;;19.40;99.90;;;;;;5036417;28;20524;-68
2023/10/03 02:37:57;;;;;;;4.63;2.92;;;19.40;99.90;;;;;;5036473;28;20478;-69
2023/10/03 02:40:26;;;;;;;4.60;2.78;;;19.30;99.90;;;;;;5036248;28;20026;-69
2023/10/03 02:42:54;;;;;;;5.72;2.90;;;19.30;99.90;;;;;;5038473;28;20026;-69
2023/10/03 02:45:23;;;;;;;4.15;2.88;;;19.20;99.90;;;;;;5039737;28;20032;-69
2023/10/03 02:48:03;;;;;;;4.72;2.85;;;19.20;99.90;;;;;;5039908;28;20052;-69
2023/10/03 02:50:33;;;;;;;6.53;3.20;;;19.20;99.90;;;;;;5028398;28;20032;-68
2023/10/03 02:52:59;;;;;;;5.32;2.60;;;19.20;99.90;;;;;;5038343;28;20489;-68
2023/10/03 02:55:25;;;;;;;5.88;2.90;;;19.20;99.90;;;;;;5042227;28;20037;-68
2023/10/03 02:57:51;;;;;;;5.78;2.95;;;19.20;99.90;;;;;;5039485;28;20498;-68
2023/10/03 03:00:19;;;;;;;4.35;2.15;;;19.20;99.90;;;;;;5039580;28;20025;-69
2023/10/03 03:02:50;;;;;;;4.55;2.70;;;19.30;99.90;;;;;;5036789;28;20104;-67
2023/10/03 03:05:17;;;;;;;3.95;2.78;;;19.30;99.90;;;;;;5039813;28;20025;-68
2023/10/03 03:07:49;;;;;;;5.65;2.80;;;19.20;99.90;;;;;;5039552;28;20490;-68
2023/10/03 03:10:17;;;;;;;3.88;2.22;;;19.20;99.90;;;;;;5039565;28;20022;-68
2023/10/03 03:12:46;;;;;;;4.88;2.58;;;19.20;99.90;;;;;;5039326;28;20116;-68
2023/10/03 03:15:32;;;;;;;5.28;2.35;;;19.20;99.90;;;;;;5037880;28;20397;-68
2023/10/03 03:17:58;;;;;;;5.88;2.85;;;19.20;99.90;;;;;;5027254;28;20470;-68
2023/10/03 03:20:35;;;;;;;5.45;2.45;;;19.20;99.90;;;;;;5039178;28;20022;-68
2023/10/03 03:23:02;;;;;;;6.05;2.33;;;19.20;99.90;;;;;;5039379;28;20025;-67
2023/10/03 03:25:37;;;;;;;5.63;2.60;;;19.20;99.90;;;;;;5037762;28;20033;-68
2023/10/03 03:28:12;;;;;;;4.72;2.25;;;19.10;99.90;;;;;;5039242;28;20571;-67
2023/10/03 03:30:54;;;;;;;5.00;2.10;;;19.10;99.90;;;;;;5037477;28;20022;-68
2023/10/03 03:33:20;;;;;;;3.78;2.17;;;19.10;99.90;;;;;;5039079;28;20029;-68
2023/10/03 03:35:47;;;;;;;4.80;2.00;;;19.20;99.90;;;;;;5039089;28;20072;-68
2023/10/03 03:38:20;;;;;;;4.20;2.33;;;19.10;99.90;;;;;;5039020;28;20051;-70
2023/10/03 03:40:47;;;;;;;4.18;2.05;;;19.10;99.90;;;;;;5038400;28;20018;-68
2023/10/03 03:43:17;;;;;;;6.75;2.75;;;19.10;99.90;;;;;;5038813;28;20021;-70
2023/10/03 03:45:45;;;;;;;6.53;2.15;;;19.00;99.90;;;;;;5038729;28;20025;-68
2023/10/03 03:48:13;;;;;;;4.22;2.10;;;19.00;99.90;;;;;;5038709;28;20025;-69
2023/10/03 03:50:39;;;;;;;4.88;2.40;;;19.00;99.90;;;;;;5038827;28;20494;-68
2023/10/03 03:53:10;;;;;;;5.32;2.50;;;19.00;99.90;;;;;;5037819;28;20052;-68
2023/10/03 03:55:37;;;;;;;5.85;2.42;;;19.00;99.90;;;;;;5041209;28;20040;-67
2023/10/03 03:58:07;;;;;;;5.60;2.30;;;19.00;99.90;;;;;;5038398;28;20044;-70
2023/10/03 04:00:34;;;;;;;6.15;2.47;;;19.00;99.90;;;;;;5038650;28;20014;-67
2023/10/03 04:03:08;;;;;;;6.28;2.70;;;19.00;99.90;;;;;;5033863;28;20025;-67
2023/10/03 04:05:34;;;;;;;4.75;2.40;;;19.00;99.90;;;;;;5038472;28;20437;-68
2023/10/03 04:08:00;;;;;;;6.25;2.55;;;19.00;99.90;;;;;;5037155;28;20160;-67
2023/10/03 04:10:26;;;;;;;6.88;2.72;;;19.00;99.90;;;;;;5038350;28;20048;-67
2023/10/03 04:12:54;;;;;;;4.80;2.70;;;19.00;99.90;;;;;;5038023;28;20029;-67
2023/10/03 04:15:20;;;;;;;5.55;2.70;;;19.00;99.90;;;;;;5036943;28;20116;-67
2023/10/03 04:17:48;;;;;;;10.98;2.60;;;19.00;99.90;;;;;;5038028;28;20390;-67
2023/10/03 04:20:30;;;;;;;3.60;1.88;;;19.00;99.90;;;;;;5036879;28;20057;-67
2023/10/03 04:22:58;;;;;;;3.33;2.17;;;18.90;99.90;;;;;;5038218;28;20079;-67
2023/10/03 04:25:25;;;;;;;3.50;2.30;;;18.90;99.90;;;;;;5036586;28;20048;-67
2023/10/03 04:27:55;;;;;;;3.65;2.30;;;18.90;99.90;;;;;;5037982;28;20096;-67
2023/10/03 04:30:23;;;;;;;5.05;2.33;;;18.90;99.90;;;;;;5037761;28;20060;-67
2023/10/03 04:32:49;;;;;;;5.03;2.40;;;18.90;99.90;;;;;;5037835;28;20025;-67
2023/10/03 04:35:15;;;;;;;5.53;2.10;;;18.90;99.90;;;;;;5037830;28;20410;-67
2023/10/03 04:37:44;;;;;;;4.15;2.30;;;18.90;99.90;;;;;;5036682;28;20033;-67
2023/10/03 04:40:15;;;;;;;5.38;2.10;;;18.90;99.90;;;;;;5037564;28;20052;-67
2023/10/03 04:42:45;;;;;;;4.03;1.90;;;18.70;99.90;;;;;;5037579;28;20802;-67
2023/10/03 04:45:14;;;;;;;4.65;1.65;;;18.60;99.90;;;;;;5037536;28;20485;-67
2023/10/03 04:47:44;;;;;;;3.28;1.70;;;18.50;99.90;;;;;;5037727;28;20107;-67
2023/10/03 04:50:11;;;;;;;3.67;1.48;;;18.40;99.90;;;;;;5037555;28;20029;-67
2023/10/03 04:52:38;;;;;;;3.90;1.90;;;18.40;99.90;;;;;;5037426;28;20025;-67
2023/10/03 04:55:04;;;;;;;2.10;1.40;;;18.30;99.90;;;;;;5039485;28;20040;-69
2023/10/03 04:57:30;;;;;;;2.55;1.50;;;18.30;99.90;;;;;;5036061;28;20077;-68
2023/10/03 04:59:56;;;;;;;4.72;1.80;;;18.20;99.90;;;;;;5037421;28;20028;-69
2023/10/03 05:02:25;;;;;;;3.97;1.40;;;18.10;99.90;;;;;;5035515;28;20022;-68
2023/10/03 05:04:51;;;;;;;4.82;1.60;;;18.00;99.90;;;;;;5037158;28;20394;-68
2023/10/03 05:07:17;;;;;;;4.38;1.65;;;18.00;99.90;;;;;;5037436;28;20021;-68
2023/10/03 05:09:43;;;;;;;4.63;1.77;;;18.00;99.90;;;;;;5036915;28;20151;-69
2023/10/03 05:12:09;;;;;;;3.92;1.52;;;17.90;99.90;;;;;;5035676;28;20056;-68
2023/10/03 05:14:40;;;;;;;3.53;1.35;;;17.90;99.90;;;;;;5036702;28;20425;-68
2023/10/03 05:17:06;;;;;;;3.80;1.63;;;17.90;99.90;;;;;;5039626;28;20025;-68
2023/10/03 05:19:32;;;;;;;4.30;1.70;;;17.80;99.90;;;;;;5038551;28;20037;-67
2023/10/03 05:21:58;;;;;;;5.45;1.75;;;17.70;99.90;;;;;;5025599;28;20076;-67
2023/10/03 05:24:24;;;;;;;5.72;1.73;;;17.70;99.90;;;;;;5027550;28;20474;-72
2023/10/03 05:26:51;;;;;;;4.40;1.60;;;17.60;99.90;;;;;;5035570;28;20029;-67
2023/10/03 05:29:17;;;;;;;3.90;1.70;;;17.60;99.90;;;;;;5042582;28;20041;-67
2023/10/03 05:31:43;;;;;;;4.78;1.92;;;17.60;99.90;;;;;;5041424;28;20028;-67
2023/10/03 05:34:10;;;;;;;2.42;1.45;;;17.60;99.90;;;;;;5049723;28;20029;-67
2023/10/03 05:36:35;;;;;;;6.15;2.05;;;17.60;99.90;;;;;;5040772;28;20033;-67
2023/10/03 05:39:03;;;;;;;5.55;1.70;;;17.50;99.90;;;;;;5036723;28;20113;-68
2023/10/03 05:41:29;;;;;;;3.75;1.50;;;17.50;99.90;;;;;;5032945;28;20506;-67
2023/10/03 05:43:54;;;;;;;5.40;1.80;;;17.50;99.90;;;;;;5036144;28;20073;-68
2023/10/03 05:46:20;;;;;;;5.40;1.70;;;17.50;99.90;;;;;;5035586;28;20521;-68
2023/10/03 05:48:46;;;;;;;3.70;1.35;;;17.50;99.90;;;;;;5034548;28;20033;-68
2023/10/03 05:51:12;;;;;;;5.10;1.90;;;17.40;99.90;;;;;;5035763;28;20044;-68
2023/10/03 05:53:40;;;;;;;4.18;2.13;;;17.30;99.90;;;;;;5034579;28;20560;-67
2023/10/03 05:56:06;;;;;;;4.80;1.85;;;17.30;99.90;;;;;;5038030;28;20029;-67
2023/10/03 05:58:32;;;;;;;6.20;2.15;;;17.30;99.90;;;;;;5045291;28;20649;-67
2023/10/03 06:00:59;;;;;;;5.28;1.95;;;17.20;99.90;;;;;;5034684;28;20025;-67
2023/10/03 06:03:25;;;;;;;6.07;1.80;;;17.20;99.90;;;;;;5035637;28;20397;-67
2023/10/03 06:05:51;;;;;;;5.28;1.80;;;17.10;99.90;;;;;;5033804;28;20030;-69
2023/10/03 06:08:18;;;;;;;5.82;1.90;;;17.10;99.90;;;;;;5026850;28;20081;-69
2023/10/03 06:10:43;;;;;;;6.38;1.90;;;17.00;99.90;;;;;;5030715;28;20021;-69
2023/10/03 06:13:12;;;;;;;4.38;1.92;;;17.00;99.90;;;;;;5034358;28;20121;-69
2023/10/03 06:15:42;;;;;;;5.05;2.10;;;17.00;99.90;;;;;;5029429;28;20533;-70
2023/10/03 06:18:08;;;;;;;4.55;1.80;;;17.00;99.90;;;;;;5040069;28;20026;-69
2023/10/03 06:20:34;;;;;;;5.38;2.10;;;17.00;99.90;;;;;;5038781;28;20112;-69
2023/10/03 06:23:04;;;;;;;7.38;2.38;;;17.00;99.90;;;;;;5035004;28;20636;-69
2023/10/03 06:25:31;;;;;;;6.80;2.08;;;17.00;99.90;;;;;;5036786;28;20055;-69
2023/10/03 06:27:59;;;;;;;4.13;1.95;;;16.90;99.90;;;;;;5040149;28;20036;-68
2023/10/03 06:30:25;;;;;;;5.50;2.22;;;16.90;99.90;;;;;;5039097;28;20029;-68
2023/10/03 06:32:51;;;;;;;5.57;2.25;;;16.90;99.90;;;;;;5038418;28;20040;-69
2023/10/03 06:35:17;;;;;;;4.85;1.83;;;16.90;99.90;;;;;;5038538;28;20087;-69
2023/10/03 06:37:44;;;;;;;4.43;1.77;;;16.90;99.90;;;;;;5039254;28;20052;-69
2023/10/03 06:40:13;;;;;;;5.80;2.50;;;16.90;99.90;;;;;;5037280;28;20021;-69
2023/10/03 06:42:40;;;;;;;6.13;2.55;;;16.90;99.90;;;;;;5031596;28;20021;-69
2023/10/03 06:45:10;;;;;;;5.35;2.28;;;16.90;99.90;;;;;;5039003;28;20022;-69
2023/10/03 06:47:37;;;;;;;5.43;2.05;;;16.90;99.90;;;;;;5039350;28;20017;-69
2023/10/03 06:50:05;;;;;;;6.55;2.03;;;16.90;99.90;;;;;;5039234;28;20075;-69
2023/10/03 06:52:32;;;;;;;6.15;2.20;;;16.90;99.90;;;;;;5037497;28;20029;-69
2023/10/03 06:54:58;;;;;;;7.30;2.58;;;16.90;99.90;;;;;;5039824;28;20029;-68
2023/10/03 06:57:24;;;;;;;6.43;1.95;;;16.90;99.90;;;;;;5038355;28;20049;-64
2023/10/03 06:59:50;;;;;;;4.47;2.13;;;16.80;99.90;;;;;;5038625;28;20109;-65
2023/10/03 07:02:15;;;;;;;4.68;2.05;;;16.80;99.90;;;;;;5037236;28;20493;-66
2023/10/03 07:04:41;;;;;;;4.95;2.25;;;16.80;99.90;;;;;;5037313;28;20037;-65
2023/10/03 07:07:08;;;;;;;5.20;2.53;;;16.80;99.90;;;;;;5040385;28;20029;-65
2023/10/03 07:09:33;;;;;;;5.75;2.20;;;16.90;99.90;;;;;;5035233;28;20021;-65
2023/10/03 07:12:00;;;;;;;5.43;2.00;;;17.00;99.90;;;;;;5038236;28;20029;-64
2023/10/03 07:14:25;;;;;;;5.95;2.15;;;17.00;99.90;;;;;;5031508;28;20033;-65
2023/10/03 07:16:51;;;;;;;3.25;1.58;;;17.00;99.90;;;;;;5032201;28;20494;-65
2023/10/03 07:19:17;;;;;;;5.57;2.33;;;17.00;99.90;;;;;;5026980;28;20033;-65
2023/10/03 07:21:42;;;;;;;3.92;1.88;;;17.00;99.90;;;;;;5032588;28;20101;-64
2023/10/03 07:24:08;;;;;;;5.55;2.08;;;17.00;99.90;;;;;;5035542;28;20048;-64
2023/10/03 07:26:34;;;;;;;4.53;1.73;;;17.00;99.90;;;;;;5038318;28;20033;-64
2023/10/03 07:29:01;;;;;;;6.97;2.50;;;17.00;99.90;;;;;;5037376;28;20021;-64
2023/10/03 07:31:29;;;;;;;6.43;2.00;;;17.10;99.90;;;;;;5037852;28;20026;-64
2023/10/03 07:33:56;;;;;;;5.32;2.28;;;17.10;99.90;;;;;;5038398;28;20025;-64
2023/10/03 07:36:22;;;;;;;4.03;1.73;;;17.10;99.90;;;;;;5037893;28;20029;-64
2023/10/03 07:38:47;;;;;;;6.72;2.25;;;17.00;99.90;;;;;;5038727;28;20033;-65
2023/10/03 07:41:15;;;;;;;5.75;1.80;;;17.00;99.90;;;;;;5037262;28;20104;-64
2023/10/03 07:43:41;;;;;;;5.53;2.17;;;17.00;99.90;;;;;;5035956;28;20132;-64
2023/10/03 07:46:07;;;;;;;5.30;2.13;;;17.10;99.90;;;;;;5041265;28;20021;-64
2023/10/03 07:48:33;;;;;;;4.80;2.00;;;17.10;99.90;;;;;;5038341;28;20119;-63
2023/10/03 07:50:58;;;;;;;4.80;2.10;;;17.10;99.90;;;;;;5037624;28;20029;-64
2023/10/03 07:53:29;;;;;;;3.63;1.42;;;17.10;99.90;;;;;;5037936;28;20079;-63
2023/10/03 07:55:56;;;;;;;3.78;1.60;;;17.00;99.90;;;;;;5037578;28;20025;-63
2023/10/03 07:58:22;;;;;;;4.40;1.95;;;17.00;99.90;;;;;;5037422;28;20041;-63
2023/10/03 08:00:49;;;;;;;4.28;1.55;;;17.00;99.90;;;;;;5038406;28;20547;-64
2023/10/03 08:03:15;;;;;;;4.10;1.58;;;17.10;99.90;;;;;;5037049;28;20056;-64
2023/10/03 08:05:41;;;;;;;2.72;1.30;;;17.00;99.90;;;;;;5037124;28;20030;-64
2023/10/03 08:08:07;;;;;;;5.85;1.65;;;17.20;99.90;;;;;;5037204;28;20079;-65
2023/10/03 08:10:34;;;;;;;4.60;1.60;;;17.20;99.90;;;;;;5038103;28;20091;-65
2023/10/03 08:13:01;;;;;;;2.47;1.27;;;17.30;99.90;;;;;;5037847;28;20034;-66
2023/10/03 08:15:33;;;;;;;2.97;1.08;;;17.30;99.90;;;;;;5027354;28;20032;-65
2023/10/03 08:17:59;;;;;;;3.15;1.10;;;17.40;99.90;;;;;;5037667;28;20029;-65
2023/10/03 08:20:27;;;;;;;4.00;1.80;;;17.50;99.90;;;;;;5036185;28;20029;-65
2023/10/03 08:22:52;;;;;;;3.15;1.20;;;17.60;99.90;;;;;;5037153;28;20085;-65
2023/10/03 08:25:19;;;;;;;2.70;1.30;;;17.60;99.90;;;;;;5035876;28;20415;-65
2023/10/03 08:27:46;;;;;;;3.40;1.40;;;17.60;99.90;;;;;;5037349;28;20028;-65
2023/10/03 08:30:25;;;;;;;3.33;1.30;;;17.50;99.90;;;;;;5037266;28;20028;-65
2023/10/03 08:32:54;;;;;;;3.20;1.10;;;17.40;99.90;;;;;;5035174;28;20401;-65
2023/10/03 08:35:20;;;;;;;1.45;0.80;;;17.30;99.90;;;;;;5037174;28;20516;-65
2023/10/03 08:37:46;;;;;;;2.55;1.10;;;17.10;99.90;;;;;;5037304;28;20105;-66
2023/10/03 08:40:19;;;;;;;1.85;0.88;;;17.00;99.90;;;;;;5033690;28;20577;-66
2023/10/03 08:42:52;;;;;;;2.03;1.10;;;17.00;99.90;;;;;;5034969;28;20100;-65
2023/10/03 08:45:25;;;;;;;1.88;0.70;;;17.10;99.90;;;;;;5035306;28;20035;-65
2023/10/03 08:47:53;;;;;;;1.38;0.60;;;17.20;99.90;;;;;;5034020;28;20037;-66
2023/10/03 08:50:29;;;;;;;1.45;0.65;;;17.40;99.90;;;;;;5036792;28;20393;-66
2023/10/03 08:52:56;;;;;;;1.25;0.60;;;17.60;99.90;;;;;;5036814;28;20045;-65
2023/10/03 08:55:26;;;;;;;0.77;0.40;;;17.90;99.90;;;;;;5036943;28;20043;-65
2023/10/03 08:57:52;;;;;;;1.90;0.40;;;17.90;99.90;;;;;;5033056;28;20391;-65
2023/10/03 09:00:26;;;;;;;1.00;0.47;;;17.80;99.90;;;;;;5036713;28;20422;-65
2023/10/03 09:02:54;;;;;;;;;;;17.60;99.90;;;;;;5034354;28;20412;-65
2023/10/03 09:05:22;;;;;;;1.40;0.60;;;17.60;99.90;;;;;;5036828;28;20417;-65
2023/10/03 09:07:49;;;;;;;1.70;0.40;;;17.50;99.90;;;;;;5039324;28;20078;-64
2023/10/03 09:10:25;;;;;;;1.98;0.77;;;17.50;99.90;;;;;;5043984;28;20034;-65
2023/10/03 09:13:04;;;;;;;3.13;0.77;;;17.50;99.90;;;;;;5045541;28;20021;-66
2023/10/03 09:15:37;;;;;;;1.75;0.68;;;17.50;99.90;;;;;;5043530;28;20052;-66
2023/10/03 09:18:09;;;;;;;1.67;0.70;;;17.50;99.90;;;;;;5045260;28;20074;-66
2023/10/03 09:20:36;;;;;;;0.88;0.47;;;17.50;99.90;;;;;;5041944;28;20029;-66
2023/10/03 09:23:08;;;;;;;2.95;0.63;;;17.40;99.90;;;;;;5044294;28;20026;-66
2023/10/03 09:25:41;;;;;;;2.63;0.90;;;17.40;99.90;;;;;;5040294;28;20018;-66
2023/10/03 09:28:09;;;;;;;2.80;0.85;;;17.50;99.70;;;;;;5045673;28;20098;-66
2023/10/03 09:30:38;;;;;;;1.63;0.70;;;17.50;99.90;;;;;;5042924;28;20024;-66
2023/10/03 09:33:18;;;;;;;2.40;0.98;;;17.50;99.90;;;;;;5045562;28;20442;-66
2023/10/03 09:35:57;;;;;;;1.00;0.68;;;17.60;98.00;;;;;;5043478;28;20025;-66
2023/10/03 09:38:42;;;;;;;3.33;0.70;;;17.60;99.10;;;;;;5045345;28;20021;-64
2023/10/03 09:41:16;;;;;;;1.83;0.80;;;17.60;99.90;;;;;;5045696;28;20028;-64
2023/10/03 09:43:47;;;;;;;2.33;0.80;;;17.70;99.20;;;;;;5043599;28;20044;-64
2023/10/03 09:46:14;;;;;;;1.58;0.55;;;17.70;98.30;;;;;;5043657;28;20017;-64
2023/10/03 09:48:39;;;;;;;2.05;0.88;;;17.60;97.40;;;;;;5040950;28;20032;-64
2023/10/03 09:51:05;;;;;;;2.80;1.10;;;17.60;95.20;;;;;;5046716;28;20457;-64
2023/10/03 09:53:37;;;;;;;2.20;0.80;;;17.50;95.00;;;;;;5051783;28;20052;-64
2023/10/03 09:56:08;;;;;;;2.63;0.68;;;17.60;96.00;;;;;;5049708;28;20100;-65
2023/10/03 09:58:34;;;;;;;3.47;0.80;;;17.70;96.30;;;;;;5043739;28;20564;-65
2023/10/03 10:01:00;;;;;;;2.78;1.08;;;17.80;97.20;;;;;;5045721;28;20501;-66
2023/10/03 10:03:36;;;;;;;2.30;0.80;;;17.80;93.50;;;;;;5048634;28;20032;-65
2023/10/03 10:06:22;;;;;;;1.80;0.70;;;17.80;97.30;;;;;;5048479;28;20056;-65
2023/10/03 10:09:00;;;;;;;3.50;0.57;;;18.00;96.60;;;;;;5049380;28;20561;-65
2023/10/03 10:11:27;;;;;;;3.30;0.75;;;17.90;94.90;;;;;;5047945;28;20097;-65
2023/10/03 10:14:09;;;;;;;2.08;0.77;;;17.90;93.30;;;;;;5048460;28;20128;-66
2023/10/03 10:17:03;;;;;;;4.13;1.05;;;17.90;94.20;;;;;;5043680;28;20021;-66
2023/10/03 10:20:07;;;;;;;3.00;0.90;;;17.90;95.40;;;;;;5049547;28;20025;-66
2023/10/03 10:22:58;;;;;;;;;;;17.90;94.90;;;;;;5049696;28;20021;-66
2023/10/03 10:25:30;;;;;;;2.03;0.80;;;18.00;96.00;;;;;;5046671;28;19905;-66
2023/10/03 10:28:06;;;;;;;3.30;0.73;;;18.00;95.50;;;;;;5045215;28;20025;-65
2023/10/03 10:30:36;;;;;;;1.77;0.60;;;18.00;95.30;;;;;;5047142;28;20022;-66
2023/10/03 10:33:23;;;;;;;3.30;0.70;;;18.10;93.50;;;;;;5047935;28;20021;-66
2023/10/03 10:35:55;;;;;;;3.00;0.70;;;18.10;94.40;;;;;;5046636;28;20032;-65
2023/10/03 10:38:41;;;;;;;2.70;0.82;;;18.10;93.90;;;;;;5043572;28;20083;-64
2023/10/03 10:44:13;;;;;;;2.95;0.80;;;18.10;93.60;;;;;;5038734;28;20021;-64
2023/10/03 10:46:44;;;;;;;3.88;1.00;;;18.10;93.80;;;;;;5035226;28;20037;-64
2023/10/03 10:49:31;;;;;;;2.90;0.77;;;18.10;92.30;;;;;;5027809;28;20026;-65
2023/10/03 10:51:59;;;;;;;2.63;0.90;;;18.10;93.20;;;;;;5027932;28;20072;-66
2023/10/03 10:54:25;;;;;;;7.03;1.00;;;18.10;91.70;;;;;;5037349;28;20060;-67
2023/10/03 10:57:01;;;;;;;2.95;0.60;;;18.20;92.40;;;;;;5038750;28;20025;-66
2023/10/03 10:59:28;;;;;;;1.25;0.65;;;18.30;92.80;;;;;;5034700;28;20041;-66
2023/10/03 11:01:54;;;;;;;2.30;0.77;;;18.30;92.50;;;;;;5037877;28;20027;-65
2023/10/03 11:04:27;;;;;;;3.38;0.70;;;18.40;90.70;;;;;;5036782;28;20045;-64
2023/10/03 11:06:52;;;;;;;;;;;18.50;90.80;;;;;;5039522;28;20023;-65
2023/10/03 11:09:22;;;;;;;2.67;0.70;;;18.60;92.30;;;;;;5038815;28;20000;-66
2023/10/03 11:11:51;;;;;;;2.60;0.70;;;18.60;85.80;;;;;;5038446;28;20033;-65
2023/10/03 11:14:29;;;;;;;3.00;0.77;;;18.60;89.10;;;;;;5038653;28;20339;-65
2023/10/03 11:16:58;;;;;;;2.25;0.68;;;18.40;91.50;;;;;;5037538;28;20028;-66
2023/10/03 11:19:25;;;;;;;2.50;0.80;;;18.40;90.20;;;;;;5037989;28;20536;-66
2023/10/03 11:21:51;;;;;;;2.53;0.70;;;18.50;89.20;;;;;;5037143;28;20025;-66
2023/10/03 11:24:19;;;;;;;2.53;0.82;;;18.50;90.90;;;;;;5038673;28;20499;-65
2023/10/03 11:26:48;;;;;;;2.15;0.70;;;18.50;83.80;;;;;;5036026;28;20040;-65
2023/10/03 11:29:17;;;;;;;1.45;0.50;;;18.50;89.00;;;;;;5038319;28;20025;-65
2023/10/03 11:31:44;;;;;;;1.33;0.50;;;18.70;81.70;;;;;;5036018;28;20041;-65
2023/10/03 11:34:10;;;;;;;2.45;0.95;;;18.70;75.80;;;;;;5038734;28;20017;-65
2023/10/03 11:36:43;;;;;;;2.88;0.70;;;18.80;80.90;;;;;;5038583;28;20044;-64
2023/10/03 11:39:13;;;;;;;;;;;18.80;82.70;;;;;;5037138;28;20064;-65
2023/10/03 11:41:39;;;;;;;3.10;0.95;;;18.90;84.70;;;;;;5035650;28;19913;-65
2023/10/03 11:44:19;;;;;;;1.35;0.70;;;18.90;79.60;;;;;;5038474;28;20036;-65
2023/10/03 11:46:46;;;;;;;3.95;0.98;;;19.00;84.20;;;;;;5056408;28;20124;-65
2023/10/03 11:49:13;;;;;;;1.73;0.77;;;19.00;77.40;;;;;;5037738;28;20028;-64
2023/10/03 11:51:42;;;;;;;1.80;0.63;;;18.90;72.50;;;;;;5037884;28;20456;-65
2023/10/03 11:54:08;;;;;;;1.45;0.60;;;18.90;74.30;;;;;;5042132;28;20018;-64
2023/10/03 11:56:43;;;;;;;1.65;0.60;;;19.00;82.00;;;;;;5038109;28;20048;-65
2023/10/03 11:59:09;;;;;;;1.35;0.55;;;19.20;78.70;;;;;;5037845;28;20061;-65
2023/10/03 12:01:35;;;;;;;1.40;0.80;;;19.40;77.30;;;;;;5036860;28;20021;-66
2023/10/03 12:04:01;;;;;;;3.13;0.77;;;19.60;73.00;;;;;;5037967;28;20022;-65
2023/10/03 12:06:27;;;;;;;4.03;0.75;;;19.70;72.10;;;;;;5036827;28;20108;-65
2023/10/03 12:08:53;;;;;;;1.88;0.75;;;19.60;76.80;;;;;;5037874;28;20053;-65
2023/10/03 12:11:20;;;;;;;1.27;0.55;;;19.60;74.30;;;;;;5037844;28;20060;-65
2023/10/03 12:13:45;;;;;;;1.40;0.65;;;19.50;69.10;;;;;;5037151;28;20049;-65
2023/10/03 12:16:11;;;;;;;1.90;0.95;;;19.60;73.30;;;;;;5037659;28;20030;-65
2023/10/03 12:18:37;;;;;;;3.25;1.00;;;19.70;71.10;;;;;;5037683;28;20017;-65
2023/10/03 12:21:04;;;;;;;2.63;0.70;;;19.70;67.80;;;;;;5037686;28;20026;-65
2023/10/03 12:23:30;;;;;;;2.45;0.80;;;19.70;71.00;;;;;;5037626;28;20005;-64
2023/10/03 12:25:56;;;;;;;3.03;0.90;;;19.50;69.40;;;;;;5037578;28;20100;-64
2023/10/03 12:28:22;;;;;;;3.78;0.52;;;19.60;73.10;;;;;;5037613;28;20013;-66
2023/10/03 12:30:50;;;;;;;4.60;0.88;;;19.80;69.60;;;;;;5037423;28;20025;-71
2023/10/03 12:33:16;;;;;;;3.58;0.80;;;19.60;67.10;;;;;;5038071;28;20037;-69
2023/10/03 12:35:42;;;;;;;2.08;0.60;;;19.40;69.30;;;;;;5028362;28;20037;-70
2023/10/03 12:38:10;;;;;;;2.08;0.57;;;19.40;68.40;;;;;;5032118;28;20436;-70
2023/10/03 12:40:36;;;;;;;3.00;0.80;;;19.40;69.00;;;;;;5037615;28;20026;-70
2023/10/03 12:43:02;;;;;;;1.55;0.60;;;19.50;70.10;;;;;;5028113;28;20145;-71
2023/10/03 12:45:28;;;;;;;1.42;0.60;;;19.60;68.20;;;;;;5036570;28;20512;-67
2023/10/03 12:47:54;;;;;;;1.90;0.68;;;19.80;69.40;;;;;;5036877;28;20061;-70
2023/10/03 12:50:23;;;;;;;3.70;0.75;;;19.90;67.70;;;;;;5037071;28;20021;-68
2023/10/03 12:52:52;;;;;;;2.17;0.60;;;19.90;66.30;;;;;;5036429;28;20041;-69
2023/10/03 12:55:18;;;;;;;1.58;0.43;;;19.90;64.50;;;;;;5039437;28;20057;-69
2023/10/03 12:57:46;;;;;;;1.50;0.60;;;19.70;63.40;;;;;;5035525;28;20124;-68
2023/10/03 13:00:13;;;;;;;1.02;0.43;;;19.60;62.40;;;;;;5036197;28;20406;-69